Terminal Aerodrome Forecast
Issued by NWS Wilmington, OH

Current Version | Previous Version | Graphics & Text | Print | Product List | Glossary On
Versions: 1 2 3 4 5 6 7 8 9 10 11 12 13 14 15 16 17 18 19 20
182
FTUS41 KILN 180541
TAFILN
TAF
KILN 180541Z 1806/1906 19012G21KT 6SM -SHRA OVC080 WS020/21050KT
     FM181000 21015G25KT 4SM -SHRA BR VCTS OVC025CB WS020/22050KT
     FM181400 21017G27KT P6SM VCSH OVC014
     FM181800 20020G30KT P6SM VCSH OVC014
     FM182200 27022G29KT 4SM SHRA BR OVC012
     FM190100 29023G33KT P6SM OVC012=

USA.gov is the U.S. government's official web portal to all federal, state and local government web resources and services.